Temp: 16.8°C   Baro: 1017.9mb
  Wind: 6.9mph   Dir: SW (218°)
  Rain: 0.0mm (0.0mm/hr)
  Solar: 26W/m2  Hum: 88%
 
Bath Spa Weather Historical Data
Daily Summary for May 17, 2018 Units:  Both    English   Metric
Next Day »
Daily Weekly Monthly Yearly Custom
  High: Low: Average:
Temperature: 66.6 °F /  19.2 °C 43.2 °F /  6.2 °C 54.7 °F /  12.6 °C
Dew Point: 44.2 °F /  6.8 °C 37.6 °F /  3.1 °C 41 °F /  5 °C
Humidity: 84% 37% 62%
Wind Speed: 11mph /  17.7km/h - 2.8mph /  4.5km/h
Wind Gust: 14mph /  22.5km/h - -
Wind direction- - East
Pressure: 30.4 in /  1028.7 hPa 30.3 in /  1025.6 hPa -
Precipitation: 0 in /  0.0 mm    
Historical Graphs
 
 
Tabular Data for May 17, 2018
Time Temperature Dew Point Pressure Wind direction Wind Speed Wind Gust Humidity Rainfall Rate (Hourly) solar
00:02 49.3 °F /  9.6 °C 42.1 °F /  5.6 °C 30.4in /  1028.3hPa ENE 0.9mph /  1.4km/h 1mph /  1.6km/h 76% 0in /  0.0mm 0.0 W/m2
00:07 49.1 °F /  9.5 °C 41.9 °F /  5.5 °C 30.4in /  1028.3hPa ESE 0.9mph /  1.4km/h 5mph /  8.0km/h 76% 0in /  0.0mm 0.0 W/m2
00:12 49.1 °F /  9.5 °C 41.9 °F /  5.5 °C 30.4in /  1028.7hPa ENE 0.9mph /  1.4km/h 6mph /  9.7km/h 76% 0in /  0.0mm 0.0 W/m2
00:17 48.9 °F /  9.4 °C 41.7 °F /  5.4 °C 30.4in /  1028.7hPa Calm   4mph /  6.4km/h 76% 0in /  0.0mm 0.0 W/m2
00:22 48.9 °F /  9.4 °C 41.7 °F /  5.4 °C 30.4in /  1028.7hPa East 2mph /  3.2km/h 5mph /  8.0km/h 76% 0in /  0.0mm 0.0 W/m2
00:27 48.7 °F /  9.3 °C 41.5 °F /  5.3 °C 30.4in /  1028.7hPa Calm   3mph /  4.8km/h 76% 0in /  0.0mm 0.0 W/m2
00:32 48.7 °F /  9.3 °C 41.5 °F /  5.3 °C 30.4in /  1028.7hPa East 2mph /  3.2km/h 7mph /  11.3km/h 76% 0in /  0.0mm 0.0 W/m2
00:37 48.6 °F /  9.2 °C 41.7 °F /  5.4 °C 30.4in /  1028.7hPa ENE 4mph /  6.4km/h 5mph /  8.0km/h 77% 0in /  0.0mm 0.0 W/m2
00:42 48.6 °F /  9.2 °C 41.7 °F /  5.4 °C 30.4in /  1028.7hPa Calm   2mph /  3.2km/h 77% 0in /  0.0mm 0.0 W/m2
00:47 48.2 °F /  9.0 °C 41.4 °F /  5.2 °C 30.4in /  1028.7hPa ENE 2.9mph /  4.7km/h 8mph /  12.9km/h 77% 0in /  0.0mm 0.0 W/m2
00:52 48.2 °F /  9.0 °C 41.4 °F /  5.2 °C 30.4in /  1028.7hPa East 2mph /  3.2km/h 3mph /  4.8km/h 77% 0in /  0.0mm 0.0 W/m2
00:57 48 °F /  8.9 °C 41.2 °F /  5.1 °C 30.4in /  1028.7hPa ENE 2mph /  3.2km/h 8mph /  12.9km/h 77% 0in /  0.0mm 0.0 W/m2
01:02 47.8 °F /  8.8 °C 41 °F /  5.0 °C 30.4in /  1028.7hPa ENE 0.9mph /  1.4km/h 5mph /  8.0km/h 77% 0in /  0.0mm 0.0 W/m2
01:07 47.7 °F /  8.7 °C 40.8 °F /  4.9 °C 30.4in /  1028.7hPa Calm   6mph /  9.7km/h 77% 0in /  0.0mm 0.0 W/m2
01:12 47.7 °F /  8.7 °C 40.8 °F /  4.9 °C 30.4in /  1028.7hPa ENE 0.9mph /  1.4km/h 6mph /  9.7km/h 77% 0in /  0.0mm 0.0 W/m2
01:17 47.5 °F /  8.6 °C 40.6 °F /  4.8 °C 30.4in /  1028.7hPa NE 4.9mph /  7.9km/h 8mph /  12.9km/h 77% 0in /  0.0mm 0.0 W/m2
01:22 47.3 °F /  8.5 °C 40.5 °F /  4.7 °C 30.4in /  1028.7hPa ENE 2.9mph /  4.7km/h 4mph /  6.4km/h 77% 0in /  0.0mm 0.0 W/m2
01:27 47.3 °F /  8.5 °C 40.5 °F /  4.7 °C 30.4in /  1028.7hPa East 2mph /  3.2km/h 5mph /  8.0km/h 77% 0in /  0.0mm 0.0 W/m2
01:32 47.1 °F /  8.4 °C 40.3 °F /  4.6 °C 30.4in /  1028.7hPa ESE 4.9mph /  7.9km/h 10mph /  16.1km/h 77% 0in /  0.0mm 0.0 W/m2
01:37 46.9 °F /  8.3 °C 40.5 °F /  4.7 °C 30.4in /  1028.7hPa NNE 4mph /  6.4km/h 5mph /  8.0km/h 78% 0in /  0.0mm 0.0 W/m2
01:42 46.9 °F /  8.3 °C 40.1 °F /  4.5 °C 30.4in /  1028.7hPa North 4mph /  6.4km/h 7mph /  11.3km/h 77% 0in /  0.0mm 0.0 W/m2
01:47 46.8 °F /  8.2 °C 40.3 °F /  4.6 °C 30.4in /  1028.7hPa NE 2mph /  3.2km/h 6mph /  9.7km/h 78% 0in /  0.0mm 0.0 W/m2
01:52 46.6 °F /  8.1 °C 40.1 °F /  4.5 °C 30.4in /  1028.7hPa East 2.9mph /  4.7km/h 5mph /  8.0km/h 78% 0in /  0.0mm 0.0 W/m2
01:57 46.4 °F /  8.0 °C 39.9 °F /  4.4 °C 30.4in /  1028.7hPa NNE 2mph /  3.2km/h 9mph /  14.5km/h 78% 0in /  0.0mm 0.0 W/m2
02:02 46.2 °F /  7.9 °C 39.7 °F /  4.3 °C 30.4in /  1028.3hPa ESE 2mph /  3.2km/h 6mph /  9.7km/h 78% 0in /  0.0mm 0.0 W/m2
02:07 46.2 °F /  7.9 °C 39.7 °F /  4.3 °C 30.4in /  1028.7hPa Calm   1mph /  1.6km/h 78% 0in /  0.0mm 0.0 W/m2
02:12 46 °F /  7.8 °C 39.6 °F /  4.2 °C 30.4in /  1028.3hPa SE 6mph /  9.7km/h 6mph /  9.7km/h 78% 0in /  0.0mm 0.0 W/m2
02:17 46 °F /  7.8 °C 39.6 °F /  4.2 °C 30.4in /  1028.3hPa ENE 4.9mph /  7.9km/h 11mph /  17.7km/h 78% 0in /  0.0mm 0.0 W/m2
02:22 46 °F /  7.8 °C 39.6 °F /  4.2 °C 30.4in /  1028.3hPa Calm   5mph /  8.0km/h 78% 0in /  0.0mm 0.0 W/m2
02:27 45.9 °F /  7.7 °C 39.4 °F /  4.1 °C 30.4in /  1028.3hPa Calm   4mph /  6.4km/h 78% 0in /  0.0mm 0.0 W/m2
02:32 45.9 °F /  7.7 °C 39.4 °F /  4.1 °C 30.4in /  1028.3hPa NE 2mph /  3.2km/h 4mph /  6.4km/h 78% 0in /  0.0mm 0.0 W/m2
02:37 45.7 °F /  7.6 °C 39.6 °F /  4.2 °C 30.4in /  1028.3hPa East 2mph /  3.2km/h 5mph /  8.0km/h 79% 0in /  0.0mm 0.0 W/m2
02:42 45.5 °F /  7.5 °C 39.4 °F /  4.1 °C 30.4in /  1028.3hPa Calm   5mph /  8.0km/h 79% 0in /  0.0mm 0.0 W/m2
02:47 45.5 °F /  7.5 °C 39.4 °F /  4.1 °C 30.4in /  1028.3hPa NE 4mph /  6.4km/h 4mph /  6.4km/h 79% 0in /  0.0mm 0.0 W/m2
02:52 45.3 °F /  7.4 °C 39.2 °F /  4.0 °C 30.4in /  1028.3hPa NNE 2mph /  3.2km/h 2mph /  3.2km/h 79% 0in /  0.0mm 0.0 W/m2
02:57 45.3 °F /  7.4 °C 39.2 °F /  4.0 °C 30.4in /  1028.3hPa NE 4mph /  6.4km/h 4mph /  6.4km/h 79% 0in /  0.0mm 0.0 W/m2
03:02 45.1 °F /  7.3 °C 39.4 °F /  4.1 °C 30.4in /  1028.3hPa Calm     80% 0in /  0.0mm 0.0 W/m2
03:07 45.1 °F /  7.3 °C 39.4 °F /  4.1 °C 30.4in /  1028.3hPa Calm   3mph /  4.8km/h 80% 0in /  0.0mm 0.0 W/m2
03:12 45 °F /  7.2 °C 39.2 °F /  4.0 °C 30.4in /  1028.3hPa NE 2.9mph /  4.7km/h 5mph /  8.0km/h 80% 0in /  0.0mm 0.0 W/m2
03:17 45 °F /  7.2 °C 39.2 °F /  4.0 °C 30.4in /  1028.3hPa Calm   3mph /  4.8km/h 80% 0in /  0.0mm 0.0 W/m2
03:22 44.8 °F /  7.1 °C 39.4 °F /  4.1 °C 30.4in /  1028.3hPa NNE 2mph /  3.2km/h 3mph /  4.8km/h 81% 0in /  0.0mm 0.0 W/m2
03:27 44.6 °F /  7.0 °C 39.2 °F /  4.0 °C 30.4in /  1028.3hPa NE 6.9mph /  11.1km/h 7mph /  11.3km/h 81% 0in /  0.0mm 0.0 W/m2
03:32 44.6 °F /  7.0 °C 39.2 °F /  4.0 °C 30.4in /  1028.3hPa NE 2.9mph /  4.7km/h 3mph /  4.8km/h 81% 0in /  0.0mm 0.0 W/m2
03:37 44.4 °F /  6.9 °C 39 °F /  3.9 °C 30.4in /  1028.3hPa Calm   4mph /  6.4km/h 81% 0in /  0.0mm 0.0 W/m2
03:42 44.4 °F /  6.9 °C 39 °F /  3.9 °C 30.4in /  1028.0hPa ENE 4.9mph /  7.9km/h 5mph /  8.0km/h 81% 0in /  0.0mm 0.0 W/m2
03:47 44.2 °F /  6.8 °C 38.8 °F /  3.8 °C 30.4in /  1028.0hPa ENE 6mph /  9.7km/h 6mph /  9.7km/h 81% 0in /  0.0mm 0.0 W/m2
03:52 44.2 °F /  6.8 °C 38.8 °F /  3.8 °C 30.4in /  1028.0hPa North 0.9mph /  1.4km/h 6mph /  9.7km/h 81% 0in /  0.0mm 0.0 W/m2
03:57 44.2 °F /  6.8 °C 39 °F /  3.9 °C 30.4in /  1028.0hPa North 2.9mph /  4.7km/h 4mph /  6.4km/h 82% 0in /  0.0mm 0.0 W/m2
04:02 44.2 °F /  6.8 °C 39 °F /  3.9 °C 30.4in /  1028.0hPa Calm   6mph /  9.7km/h 82% 0in /  0.0mm 0.0 W/m2
04:07 44.1 °F /  6.7 °C 38.8 °F /  3.8 °C 30.4in /  1028.0hPa Calm   4mph /  6.4km/h 82% 0in /  0.0mm 0.0 W/m2
04:12 44.1 °F /  6.7 °C 38.8 °F /  3.8 °C 30.4in /  1028.0hPa East 2mph /  3.2km/h 10mph /  16.1km/h 82% 0in /  0.0mm 0.0 W/m2
04:17 44.1 °F /  6.7 °C 38.8 °F /  3.8 °C 30.4in /  1027.7hPa NNE 2mph /  3.2km/h 13mph /  20.9km/h 82% 0in /  0.0mm 0.0 W/m2
04:22 44.1 °F /  6.7 °C 38.8 °F /  3.8 °C 30.4in /  1027.7hPa Calm   4mph /  6.4km/h 82% 0in /  0.0mm 0.0 W/m2
04:27 43.9 °F /  6.6 °C 38.7 °F /  3.7 °C 30.4in /  1027.7hPa NE 2mph /  3.2km/h 6mph /  9.7km/h 82% 0in /  0.0mm 0.0 W/m2
04:32 43.9 °F /  6.6 °C 38.7 °F /  3.7 °C 30.4in /  1027.7hPa Calm   11mph /  17.7km/h 82% 0in /  0.0mm 0.0 W/m2
04:37 43.7 °F /  6.5 °C 38.5 °F /  3.6 °C 30.4in /  1027.7hPa ENE 8.1mph /  13.0km/h 11mph /  17.7km/h 82% 0in /  0.0mm 0.0 W/m2
04:42 43.7 °F /  6.5 °C 38.8 °F /  3.8 °C 30.4in /  1027.7hPa NNW 2mph /  3.2km/h 5mph /  8.0km/h 83% 0in /  0.0mm 0.0 W/m2
04:47 43.5 °F /  6.4 °C 38.7 °F /  3.7 °C 30.4in /  1027.7hPa NE 2.9mph /  4.7km/h 4mph /  6.4km/h 83% 0in /  0.0mm 0.0 W/m2
04:52 43.5 °F /  6.4 °C 38.7 °F /  3.7 °C 30.4in /  1028.0hPa ENE 2mph /  3.2km/h 7mph /  11.3km/h 83% 0in /  0.0mm 0.0 W/m2
04:57 43.5 °F /  6.4 °C 38.7 °F /  3.7 °C 30.4in /  1027.7hPa Calm   4mph /  6.4km/h 83% 0in /  0.0mm 0.0 W/m2
05:02 43.5 °F /  6.4 °C 38.7 °F /  3.7 °C 30.4in /  1027.7hPa East 2mph /  3.2km/h 6mph /  9.7km/h 83% 0in /  0.0mm 0.0 W/m2
05:07 43.3 °F /  6.3 °C 38.5 °F /  3.6 °C 30.4in /  1027.7hPa ESE 0.9mph /  1.4km/h 4mph /  6.4km/h 83% 0in /  0.0mm 0.0 W/m2
05:12 43.3 °F /  6.3 °C 38.5 °F /  3.6 °C 30.4in /  1028.0hPa ENE 2mph /  3.2km/h 8mph /  12.9km/h 83% 0in /  0.0mm 0.0 W/m2
05:17 43.3 °F /  6.3 °C 38.5 °F /  3.6 °C 30.4in /  1028.0hPa Calm   7mph /  11.3km/h 83% 0in /  0.0mm 0.0 W/m2
05:22 43.3 °F /  6.3 °C 38.5 °F /  3.6 °C 30.4in /  1028.0hPa Calm   2mph /  3.2km/h 83% 0in /  0.0mm 5.0 W/m2
05:27 43.3 °F /  6.3 °C 38.5 °F /  3.6 °C 30.4in /  1027.7hPa East 2mph /  3.2km/h 7mph /  11.3km/h 83% 0in /  0.0mm 7.0 W/m2
05:32 43.3 °F /  6.3 °C 38.5 °F /  3.6 °C 30.4in /  1028.0hPa NNE 2.9mph /  4.7km/h 5mph /  8.0km/h 83% 0in /  0.0mm 11.0 W/m2
05:37 43.3 °F /  6.3 °C 38.8 °F /  3.8 °C 30.4in /  1028.0hPa Calm   7mph /  11.3km/h 84% 0in /  0.0mm 12.0 W/m2
05:42 43.2 °F /  6.2 °C 38.7 °F /  3.7 °C 30.4in /  1028.0hPa Calm   2mph /  3.2km/h 84% 0in /  0.0mm 16.0 W/m2
05:47 43.2 °F /  6.2 °C 38.7 °F /  3.7 °C 30.4in /  1028.0hPa NE 0.9mph /  1.4km/h 5mph /  8.0km/h 84% 0in /  0.0mm 18.0 W/m2
05:52 43.2 °F /  6.2 °C 38.7 °F /  3.7 °C 30.4in /  1028.0hPa South 2mph /  3.2km/h 2mph /  3.2km/h 84% 0in /  0.0mm 21.0 W/m2
05:57 43.2 °F /  6.2 °C 38.7 °F /  3.7 °C 30.4in /  1028.0hPa Calm   2mph /  3.2km/h 84% 0in /  0.0mm 25.0 W/m2
06:02 43.2 °F /  6.2 °C 38.7 °F /  3.7 °C 30.4in /  1028.0hPa East 0.9mph /  1.4km/h 3mph /  4.8km/h 84% 0in /  0.0mm 25.0 W/m2
06:07 43.2 °F /  6.2 °C 38.7 °F /  3.7 °C 30.4in /  1028.0hPa NE 0.9mph /  1.4km/h 3mph /  4.8km/h 84% 0in /  0.0mm 26.0 W/m2
06:12 43.2 °F /  6.2 °C 38.7 °F /  3.7 °C 30.4in /  1028.0hPa Calm   4mph /  6.4km/h 84% 0in /  0.0mm 30.0 W/m2
06:17 43.3 °F /  6.3 °C 38.8 °F /  3.8 °C 30.4in /  1028.0hPa Calm   3mph /  4.8km/h 84% 0in /  0.0mm 32.0 W/m2
06:22 43.2 °F /  6.2 °C 38.7 °F /  3.7 °C 30.4in /  1028.0hPa North 0.9mph /  1.4km/h 2mph /  3.2km/h 84% 0in /  0.0mm 33.0 W/m2
06:27 43.3 °F /  6.3 °C 38.8 °F /  3.8 °C 30.4in /  1028.0hPa NNE 4mph /  6.4km/h 9mph /  14.5km/h 84% 0in /  0.0mm 37.0 W/m2
06:32 43.3 °F /  6.3 °C 38.8 °F /  3.8 °C 30.4in /  1028.3hPa North 6.9mph /  11.1km/h 8mph /  12.9km/h 84% 0in /  0.0mm 39.0 W/m2
06:37 43.3 °F /  6.3 °C 38.8 °F /  3.8 °C 30.4in /  1028.0hPa NE 2mph /  3.2km/h 7mph /  11.3km/h 84% 0in /  0.0mm 42.0 W/m2
06:42 43.5 °F /  6.4 °C 39 °F /  3.9 °C 30.4in /  1028.3hPa SE 0.9mph /  1.4km/h 3mph /  4.8km/h 84% 0in /  0.0mm 49.0 W/m2
06:47 43.7 °F /  6.5 °C 38.8 °F /  3.8 °C 30.4in /  1028.0hPa Calm   1mph /  1.6km/h 83% 0in /  0.0mm 56.0 W/m2
06:52 43.7 °F /  6.5 °C 38.8 °F /  3.8 °C 30.4in /  1028.0hPa ENE 2.9mph /  4.7km/h 3mph /  4.8km/h 83% 0in /  0.0mm 67.0 W/m2
06:57 44.1 °F /  6.7 °C 39.2 °F /  4.0 °C 30.4in /  1028.3hPa ESE 2mph /  3.2km/h 9mph /  14.5km/h 83% 0in /  0.0mm 81.0 W/m2
07:02 44.2 °F /  6.8 °C 39.4 °F /  4.1 °C 30.4in /  1028.0hPa Calm   6mph /  9.7km/h 83% 0in /  0.0mm 91.0 W/m2
07:07 44.4 °F /  6.9 °C 39.6 °F /  4.2 °C 30.4in /  1028.3hPa ENE 6mph /  9.7km/h 8mph /  12.9km/h 83% 0in /  0.0mm 109.0 W/m2
07:12 44.6 °F /  7.0 °C 39.4 °F /  4.1 °C 30.4in /  1028.3hPa East 0.9mph /  1.4km/h 6mph /  9.7km/h 82% 0in /  0.0mm 93.0 W/m2
07:17 45.1 °F /  7.3 °C 39.9 °F /  4.4 °C 30.4in /  1028.3hPa Calm   5mph /  8.0km/h 82% 0in /  0.0mm 155.0 W/m2
07:22 45.3 °F /  7.4 °C 40.1 °F /  4.5 °C 30.4in /  1028.3hPa SE 4.9mph /  7.9km/h 10mph /  16.1km/h 82% 0in /  0.0mm 102.0 W/m2
07:27 45.5 °F /  7.5 °C 40.1 °F /  4.5 °C 30.4in /  1028.3hPa NNE 0.9mph /  1.4km/h 8mph /  12.9km/h 81% 0in /  0.0mm 118.0 W/m2
07:32 45.5 °F /  7.5 °C 40.1 °F /  4.5 °C 30.4in /  1028.3hPa Calm   7mph /  11.3km/h 81% 0in /  0.0mm 113.0 W/m2
07:37 45.5 °F /  7.5 °C 40.1 °F /  4.5 °C 30.4in /  1028.3hPa ESE 0.9mph /  1.4km/h 7mph /  11.3km/h 81% 0in /  0.0mm 148.0 W/m2
07:42 45.5 °F /  7.5 °C 39.7 °F /  4.3 °C 30.4in /  1028.3hPa SE 4.9mph /  7.9km/h 8mph /  12.9km/h 80% 0in /  0.0mm 135.0 W/m2
07:47 46 °F /  7.8 °C 40.3 °F /  4.6 °C 30.4in /  1028.3hPa East 0.9mph /  1.4km/h 7mph /  11.3km/h 80% 0in /  0.0mm 134.0 W/m2
07:52 46.2 °F /  7.9 °C 40.5 °F /  4.7 °C 30.4in /  1028.3hPa NE 2mph /  3.2km/h 8mph /  12.9km/h 80% 0in /  0.0mm 301.0 W/m2
07:57 46.6 °F /  8.1 °C 40.5 °F /  4.7 °C 30.4in /  1028.3hPa NE 0.9mph /  1.4km/h 9mph /  14.5km/h 79% 0in /  0.0mm 174.0 W/m2
08:02 46.9 °F /  8.3 °C 40.5 °F /  4.7 °C 30.4in /  1028.3hPa ENE 4.9mph /  7.9km/h 6mph /  9.7km/h 78% 0in /  0.0mm 311.0 W/m2
08:07 46.9 °F /  8.3 °C 40.5 °F /  4.7 °C 30.4in /  1028.3hPa East 4.9mph /  7.9km/h 7mph /  11.3km/h 78% 0in /  0.0mm 315.0 W/m2
08:12 48.2 °F /  9.0 °C 41.4 °F /  5.2 °C 30.4in /  1028.3hPa Calm   3mph /  4.8km/h 77% 0in /  0.0mm 332.0 W/m2
08:17 48.2 °F /  9.0 °C 40.6 °F /  4.8 °C 30.4in /  1028.3hPa NE 8.1mph /  13.0km/h 8.1mph /  13.0km/h 75% 0in /  0.0mm 336.0 W/m2
08:22 47.8 °F /  8.8 °C 40.3 °F /  4.6 °C 30.4in /  1028.3hPa NNE 8.1mph /  13.0km/h 11mph /  17.7km/h 75% 0in /  0.0mm 352.0 W/m2
08:27 48.4 °F /  9.1 °C 40.8 °F /  4.9 °C 30.4in /  1028.3hPa East 8.1mph /  13.0km/h 9mph /  14.5km/h 75% 0in /  0.0mm 369.0 W/m2
08:32 49.1 °F /  9.5 °C 41.2 °F /  5.1 °C 30.4in /  1028.3hPa NE 4mph /  6.4km/h 9mph /  14.5km/h 74% 0in /  0.0mm 385.0 W/m2
08:37 49.3 °F /  9.6 °C 40.6 °F /  4.8 °C 30.4in /  1028.3hPa ESE 4mph /  6.4km/h 5mph /  8.0km/h 72% 0in /  0.0mm 403.0 W/m2
08:42 49.5 °F /  9.7 °C 40.8 °F /  4.9 °C 30.4in /  1028.3hPa East 2.9mph /  4.7km/h 7mph /  11.3km/h 72% 0in /  0.0mm 415.0 W/m2
08:48 50 °F /  10.0 °C 41.4 °F /  5.2 °C 30.4in /  1028.3hPa NNW 4mph /  6.4km/h 5mph /  8.0km/h 72% 0in /  0.0mm 427.0 W/m2
08:53 50 °F /  10.0 °C 41.4 °F /  5.2 °C 30.4in /  1028.3hPa ESE 2.9mph /  4.7km/h 8mph /  12.9km/h 72% 0in /  0.0mm 446.0 W/m2
08:58 50.7 °F /  10.4 °C 41.4 °F /  5.2 °C 30.4in /  1028.3hPa North 0.9mph /  1.4km/h 5mph /  8.0km/h 70% 0in /  0.0mm 457.0 W/m2
09:03 51.1 °F /  10.6 °C 41.2 °F /  5.1 °C 30.4in /  1028.3hPa NNE 2.9mph /  4.7km/h 7mph /  11.3km/h 69% 0in /  0.0mm 469.0 W/m2
09:08 51.3 °F /  10.7 °C 41.4 °F /  5.2 °C 30.4in /  1028.3hPa East 0.9mph /  1.4km/h 4mph /  6.4km/h 69% 0in /  0.0mm 483.0 W/m2
09:13 52.2 °F /  11.2 °C 41.5 °F /  5.3 °C 30.4in /  1028.3hPa SE 2mph /  3.2km/h 7mph /  11.3km/h 67% 0in /  0.0mm 496.0 W/m2
09:18 52.5 °F /  11.4 °C 41.5 °F /  5.3 °C 30.4in /  1028.3hPa NE 8.9mph /  14.3km/h 9mph /  14.5km/h 66% 0in /  0.0mm 508.0 W/m2
09:23 52.2 °F /  11.2 °C 41.2 °F /  5.1 °C 30.4in /  1028.3hPa NE 2mph /  3.2km/h 7mph /  11.3km/h 66% 0in /  0.0mm 524.0 W/m2
09:28 52.5 °F /  11.4 °C 41.5 °F /  5.3 °C 30.4in /  1028.3hPa NE 2mph /  3.2km/h 11mph /  17.7km/h 66% 0in /  0.0mm 534.0 W/m2
09:33 52.3 °F /  11.3 °C 41 °F /  5.0 °C 30.4in /  1028.3hPa NNE 6.9mph /  11.1km/h 10mph /  16.1km/h 65% 0in /  0.0mm 547.0 W/m2
09:38 52.3 °F /  11.3 °C 40.5 °F /  4.7 °C 30.4in /  1028.3hPa NNE 2.9mph /  4.7km/h 11mph /  17.7km/h 64% 0in /  0.0mm 563.0 W/m2
09:43 53.1 °F /  11.7 °C 40.8 °F /  4.9 °C 30.4in /  1028.3hPa NE 4.9mph /  7.9km/h 12mph /  19.3km/h 63% 0in /  0.0mm 575.0 W/m2
09:48 53.4 °F /  11.9 °C 42.3 °F /  5.7 °C 30.4in /  1028.3hPa Calm   7mph /  11.3km/h 66% 0in /  0.0mm 580.0 W/m2
09:53 54 °F /  12.2 °C 42.4 °F /  5.8 °C 30.4in /  1028.3hPa NE 8.1mph /  13.0km/h 10mph /  16.1km/h 65% 0in /  0.0mm 598.0 W/m2
09:58 54.9 °F /  12.7 °C 43.7 °F /  6.5 °C 30.4in /  1028.3hPa NNE 8.1mph /  13.0km/h 8.1mph /  13.0km/h 66% 0in /  0.0mm 599.0 W/m2
10:03 54.7 °F /  12.6 °C 42.8 °F /  6.0 °C 30.4in /  1028.0hPa ESE 2.9mph /  4.7km/h 9mph /  14.5km/h 64% 0in /  0.0mm 612.0 W/m2
10:08 55.4 °F /  13.0 °C 42.3 °F /  5.7 °C 30.4in /  1028.3hPa East 2.9mph /  4.7km/h 10mph /  16.1km/h 61% 0in /  0.0mm 621.0 W/m2
10:13 54.9 °F /  12.7 °C 42.1 °F /  5.6 °C 30.4in /  1028.0hPa SE 4.9mph /  7.9km/h 12mph /  19.3km/h 62% 0in /  0.0mm 629.0 W/m2
10:18 56.1 °F /  13.4 °C 42.8 °F /  6.0 °C 30.4in /  1028.0hPa SE 11mph /  17.7km/h 11mph /  17.7km/h 61% 0in /  0.0mm 642.0 W/m2
10:23 55.2 °F /  12.9 °C 42.4 °F /  5.8 °C 30.4in /  1028.0hPa NE 6mph /  9.7km/h 13mph /  20.9km/h 62% 0in /  0.0mm 664.0 W/m2
10:28 55.4 °F /  13.0 °C 41.7 °F /  5.4 °C 30.4in /  1028.0hPa East 4.9mph /  7.9km/h 10mph /  16.1km/h 60% 0in /  0.0mm 663.0 W/m2
10:33 55.4 °F /  13.0 °C 41.7 °F /  5.4 °C 30.4in /  1028.0hPa ESE 8.9mph /  14.3km/h 13mph /  20.9km/h 60% 0in /  0.0mm 664.0 W/m2
10:38 56.1 °F /  13.4 °C 42.4 °F /  5.8 °C 30.4in /  1028.0hPa ESE 2.9mph /  4.7km/h 7mph /  11.3km/h 60% 0in /  0.0mm 677.0 W/m2
10:43 56.5 °F /  13.6 °C 42.3 °F /  5.7 °C 30.4in /  1028.0hPa NE 2.9mph /  4.7km/h 4mph /  6.4km/h 59% 0in /  0.0mm 689.0 W/m2
10:48 56.5 °F /  13.6 °C 41.9 °F /  5.5 °C 30.4in /  1028.0hPa SE 4.9mph /  7.9km/h 10mph /  16.1km/h 58% 0in /  0.0mm 710.0 W/m2
10:53 57.4 °F /  14.1 °C 41.4 °F /  5.2 °C 30.4in /  1027.7hPa ENE 2mph /  3.2km/h 10mph /  16.1km/h 55% 0in /  0.0mm 693.0 W/m2
10:58 57.6 °F /  14.2 °C 41.5 °F /  5.3 °C 30.4in /  1027.7hPa Calm   8mph /  12.9km/h 55% 0in /  0.0mm 728.0 W/m2
11:03 57.4 °F /  14.1 °C 41.9 °F /  5.5 °C 30.4in /  1027.7hPa SE 6.9mph /  11.1km/h 7mph /  11.3km/h 56% 0in /  0.0mm 721.0 W/m2
11:08 57.9 °F /  14.4 °C 42.3 °F /  5.7 °C 30.4in /  1027.7hPa ESE 2mph /  3.2km/h 4mph /  6.4km/h 56% 0in /  0.0mm 751.0 W/m2
11:13 59.4 °F /  15.2 °C 42.8 °F /  6.0 °C 30.4in /  1027.7hPa NE 6.9mph /  11.1km/h 11mph /  17.7km/h 54% 0in /  0.0mm 712.0 W/m2
11:18 59.2 °F /  15.1 °C 42.1 °F /  5.6 °C 30.4in /  1027.7hPa NE 2mph /  3.2km/h 8mph /  12.9km/h 53% 0in /  0.0mm 754.0 W/m2
11:23 59 °F /  15.0 °C 41.4 °F /  5.2 °C 30.4in /  1027.7hPa SE 6mph /  9.7km/h 8mph /  12.9km/h 52% 0in /  0.0mm 770.0 W/m2
11:28 58.8 °F /  14.9 °C 41.2 °F /  5.1 °C 30.4in /  1027.7hPa NE 2.9mph /  4.7km/h 8mph /  12.9km/h 52% 0in /  0.0mm 782.0 W/m2
11:33 59.2 °F /  15.1 °C 40.6 °F /  4.8 °C 30.4in /  1027.7hPa North 2.9mph /  4.7km/h 9mph /  14.5km/h 50% 0in /  0.0mm 798.0 W/m2
11:38 59.2 °F /  15.1 °C 41 °F /  5.0 °C 30.4in /  1027.7hPa SE 6mph /  9.7km/h 10mph /  16.1km/h 51% 0in /  0.0mm 793.0 W/m2
11:43 59.4 °F /  15.2 °C 41.7 °F /  5.4 °C 30.4in /  1027.7hPa ESE 4.9mph /  7.9km/h 10mph /  16.1km/h 52% 0in /  0.0mm 814.0 W/m2
11:48 60.1 °F /  15.6 °C 41.9 °F /  5.5 °C 30.4in /  1027.7hPa NE 0.9mph /  1.4km/h 2mph /  3.2km/h 51% 0in /  0.0mm 814.0 W/m2
11:53 61.2 °F /  16.2 °C 42.4 °F /  5.8 °C 30.4in /  1027.7hPa ESE 6.9mph /  11.1km/h 7mph /  11.3km/h 50% 0in /  0.0mm 791.0 W/m2
11:58 59.5 °F /  15.3 °C 39.9 °F /  4.4 °C 30.3in /  1027.3hPa ESE 0.9mph /  1.4km/h 12mph /  19.3km/h 48% 0in /  0.0mm 742.0 W/m2
12:03 59.4 °F /  15.2 °C 40.3 °F /  4.6 °C 30.4in /  1027.7hPa SE 4.9mph /  7.9km/h 7mph /  11.3km/h 49% 0in /  0.0mm 809.0 W/m2
12:08 59.4 °F /  15.2 °C 39.7 °F /  4.3 °C 30.4in /  1027.7hPa ESE 2mph /  3.2km/h 8mph /  12.9km/h 48% 0in /  0.0mm 800.0 W/m2
12:13 60.4 °F /  15.8 °C 40.1 °F /  4.5 °C 30.4in /  1027.7hPa NW 2.9mph /  4.7km/h 10mph /  16.1km/h 47% 0in /  0.0mm 826.0 W/m2
12:18 62.2 °F /  16.8 °C 40.1 °F /  4.5 °C 30.3in /  1027.3hPa East 6mph /  9.7km/h 6mph /  9.7km/h 44% 0in /  0.0mm 696.0 W/m2
12:23 61.7 °F /  16.5 °C 39.6 °F /  4.2 °C 30.3in /  1027.3hPa ESE 2.9mph /  4.7km/h 5mph /  8.0km/h 44% 0in /  0.0mm 594.0 W/m2
12:28 61.2 °F /  16.2 °C 40.3 °F /  4.6 °C 30.3in /  1027.3hPa ESE 0.9mph /  1.4km/h 8mph /  12.9km/h 46% 0in /  0.0mm 578.0 W/m2
12:33 58.5 °F /  14.7 °C 39.9 °F /  4.4 °C 30.3in /  1027.3hPa SE 8.1mph /  13.0km/h 8.1mph /  13.0km/h 50% 0in /  0.0mm 577.0 W/m2
12:38 59.9 °F /  15.5 °C 41.2 °F /  5.1 °C 30.3in /  1027.3hPa East 4.9mph /  7.9km/h 9mph /  14.5km/h 50% 0in /  0.0mm 642.0 W/m2
12:43 61.9 °F /  16.6 °C 39.7 °F /  4.3 °C 30.3in /  1027.3hPa ESE 6mph /  9.7km/h 9mph /  14.5km/h 44% 0in /  0.0mm 765.0 W/m2
12:48 61.2 °F /  16.2 °C 41.4 °F /  5.2 °C 30.3in /  1027.3hPa ESE 2.9mph /  4.7km/h 4mph /  6.4km/h 48% 0in /  0.0mm 830.0 W/m2
12:53 62.1 °F /  16.7 °C 39.9 °F /  4.4 °C 30.3in /  1027.3hPa NE 2.9mph /  4.7km/h 13mph /  20.9km/h 44% 0in /  0.0mm 833.0 W/m2
12:58 62.1 °F /  16.7 °C 41 °F /  5.0 °C 30.3in /  1027.3hPa ESE 0.9mph /  1.4km/h 7mph /  11.3km/h 46% 0in /  0.0mm 742.0 W/m2
13:03 63.3 °F /  17.4 °C 41.5 °F /  5.3 °C 30.3in /  1027.3hPa SSE 4.9mph /  7.9km/h 9mph /  14.5km/h 45% 0in /  0.0mm 828.0 W/m2
13:08 61.9 °F /  16.6 °C 39.7 °F /  4.3 °C 30.3in /  1027.3hPa SSE 2mph /  3.2km/h 9mph /  14.5km/h 44% 0in /  0.0mm 840.0 W/m2
13:13 63.1 °F /  17.3 °C 39.7 °F /  4.3 °C 30.3in /  1027.3hPa East 4.9mph /  7.9km/h 8mph /  12.9km/h 42% 0in /  0.0mm 895.0 W/m2
13:18 63.7 °F /  17.6 °C 39.6 °F /  4.2 °C 30.3in /  1027.3hPa SE 2.9mph /  4.7km/h 9mph /  14.5km/h 41% 0in /  0.0mm 861.0 W/m2
13:23 62.8 °F /  17.1 °C 38.7 °F /  3.7 °C 30.3in /  1027.0hPa East 4.9mph /  7.9km/h 12mph /  19.3km/h 41% 0in /  0.0mm 529.0 W/m2
13:28 63 °F /  17.2 °C 38.8 °F /  3.8 °C 30.3in /  1027.0hPa ESE 8.9mph /  14.3km/h 11mph /  17.7km/h 41% 0in /  0.0mm 926.0 W/m2
13:33 63 °F /  17.2 °C 39.6 °F /  4.2 °C 30.3in /  1027.0hPa NE 8.1mph /  13.0km/h 12mph /  19.3km/h 42% 0in /  0.0mm 693.0 W/m2
13:38 63.3 °F /  17.4 °C 39.9 °F /  4.4 °C 30.3in /  1027.0hPa NNE 8.9mph /  14.3km/h 10mph /  16.1km/h 42% 0in /  0.0mm 870.0 W/m2
13:43 64.2 °F /  17.9 °C 41.2 °F /  5.1 °C 30.3in /  1027.0hPa East 4.9mph /  7.9km/h 7mph /  11.3km/h 43% 0in /  0.0mm 893.0 W/m2
13:48 65.8 °F /  18.8 °C 42.1 °F /  5.6 °C 30.3in /  1026.6hPa ENE 2mph /  3.2km/h 8mph /  12.9km/h 42% 0in /  0.0mm 879.0 W/m2
13:53 64.4 °F /  18.0 °C 40.8 °F /  4.9 °C 30.3in /  1026.6hPa North 4mph /  6.4km/h 9mph /  14.5km/h 42% 0in /  0.0mm 714.0 W/m2
13:58 64.2 °F /  17.9 °C 41.2 °F /  5.1 °C 30.3in /  1026.6hPa North 2.9mph /  4.7km/h 7mph /  11.3km/h 43% 0in /  0.0mm 889.0 W/m2
14:03 65.7 °F /  18.7 °C 40.1 °F /  4.5 °C 30.3in /  1026.6hPa NE 4.9mph /  7.9km/h 11mph /  17.7km/h 39% 0in /  0.0mm 784.0 W/m2
14:08 66.6 °F /  19.2 °C 40.1 °F /  4.5 °C 30.3in /  1026.6hPa Calm   2mph /  3.2km/h 38% 0in /  0.0mm 898.0 W/m2
14:13 66 °F /  18.9 °C 41.7 °F /  5.4 °C 30.3in /  1026.6hPa East 10.1mph /  16.3km/h 10.1mph /  16.3km/h 41% 0in /  0.0mm 826.0 W/m2
14:18 65.3 °F /  18.5 °C 39 °F /  3.9 °C 30.3in /  1026.6hPa ESE 2.9mph /  4.7km/h 10mph /  16.1km/h 38% 0in /  0.0mm 884.0 W/m2
14:23 63.7 °F /  17.6 °C 38.3 °F /  3.5 °C 30.3in /  1026.6hPa North 2.9mph /  4.7km/h 10mph /  16.1km/h 39% 0in /  0.0mm 870.0 W/m2
14:28 65.1 °F /  18.4 °C 40.8 °F /  4.9 °C 30.3in /  1026.6hPa East 0.9mph /  1.4km/h 8mph /  12.9km/h 41% 0in /  0.0mm 826.0 W/m2
14:33 66.4 °F /  19.1 °C 39.9 °F /  4.4 °C 30.3in /  1026.6hPa NNE 6.9mph /  11.1km/h 8mph /  12.9km/h 38% 0in /  0.0mm 606.0 W/m2
14:38 64.4 °F /  18.0 °C 37.6 °F /  3.1 °C 30.3in /  1026.3hPa North 8.9mph /  14.3km/h 10mph /  16.1km/h 37% 0in /  0.0mm 617.0 W/m2
14:43 64.4 °F /  18.0 °C 39.6 °F /  4.2 °C 30.3in /  1026.6hPa NNE 2.9mph /  4.7km/h 7mph /  11.3km/h 40% 0in /  0.0mm 543.0 W/m2
14:48 64.4 °F /  18.0 °C 40.8 °F /  4.9 °C 30.3in /  1026.3hPa ENE 2.9mph /  4.7km/h 5mph /  8.0km/h 42% 0in /  0.0mm 663.0 W/m2
14:53 64.4 °F /  18.0 °C 40.8 °F /  4.9 °C 30.3in /  1026.3hPa East 4.9mph /  7.9km/h 7mph /  11.3km/h 42% 0in /  0.0mm 782.0 W/m2
14:58 65.8 °F /  18.8 °C 41.5 °F /  5.3 °C 30.3in /  1026.3hPa ENE 4.9mph /  7.9km/h 9mph /  14.5km/h 41% 0in /  0.0mm 932.0 W/m2
15:03 66.6 °F /  19.2 °C 40.8 °F /  4.9 °C 30.3in /  1026.3hPa East 8.1mph /  13.0km/h 9mph /  14.5km/h 39% 0in /  0.0mm 868.0 W/m2
15:08 65.8 °F /  18.8 °C 40.8 °F /  4.9 °C 30.3in /  1026.3hPa Calm   7mph /  11.3km/h 40% 0in /  0.0mm 886.0 W/m2
15:13 65.3 °F /  18.5 °C 40.3 °F /  4.6 °C 30.3in /  1026.3hPa ESE 4mph /  6.4km/h 9mph /  14.5km/h 40% 0in /  0.0mm 788.0 W/m2
15:18 64.8 °F /  18.2 °C 41.2 °F /  5.1 °C 30.3in /  1026.0hPa ENE 4mph /  6.4km/h 5mph /  8.0km/h 42% 0in /  0.0mm 744.0 W/m2
15:23 65.1 °F /  18.4 °C 40.8 °F /  4.9 °C 30.3in /  1026.0hPa ESE 4.9mph /  7.9km/h 13mph /  20.9km/h 41% 0in /  0.0mm 719.0 W/m2
15:28 65.8 °F /  18.8 °C 42.1 °F /  5.6 °C 30.3in /  1026.0hPa NE 8.1mph /  13.0km/h 8.1mph /  13.0km/h 42% 0in /  0.0mm 635.0 W/m2
15:33 65.1 °F /  18.4 °C 40.8 °F /  4.9 °C 30.3in /  1026.3hPa NE 8.9mph /  14.3km/h 12mph /  19.3km/h 41% 0in /  0.0mm 396.0 W/m2
15:38 63.9 °F /  17.7 °C 41 °F /  5.0 °C 30.3in /  1026.0hPa NE 4mph /  6.4km/h 7mph /  11.3km/h 43% 0in /  0.0mm 459.0 W/m2
15:43 63.5 °F /  17.5 °C 41.2 °F /  5.1 °C 30.3in /  1026.0hPa NE 2mph /  3.2km/h 12mph /  19.3km/h 44% 0in /  0.0mm 601.0 W/m2
15:48 64.2 °F /  17.9 °C 40.6 °F /  4.8 °C 30.3in /  1026.0hPa North 4.9mph /  7.9km/h 6mph /  9.7km/h 42% 0in /  0.0mm 645.0 W/m2
15:53 64.6 °F /  18.1 °C 41.5 °F /  5.3 °C 30.3in /  1026.0hPa SE 4.9mph /  7.9km/h 6mph /  9.7km/h 43% 0in /  0.0mm 738.0 W/m2
15:58 64.2 °F /  17.9 °C 40.1 °F /  4.5 °C 30.3in /  1026.0hPa NNE 2mph /  3.2km/h 14mph /  22.5km/h 41% 0in /  0.0mm 719.0 W/m2
16:03 65.1 °F /  18.4 °C 41.5 °F /  5.3 °C 30.3in /  1026.0hPa East 6mph /  9.7km/h 8mph /  12.9km/h 42% 0in /  0.0mm 629.0 W/m2
16:08 65.3 °F /  18.5 °C 41.5 °F /  5.3 °C 30.3in /  1026.0hPa East 2mph /  3.2km/h 7mph /  11.3km/h 42% 0in /  0.0mm 554.0 W/m2
16:13 64 °F /  17.8 °C 41.7 °F /  5.4 °C 30.3in /  1026.0hPa North 2.9mph /  4.7km/h 7mph /  11.3km/h 44% 0in /  0.0mm 482.0 W/m2
16:18 63.9 °F /  17.7 °C 41.5 °F /  5.3 °C 30.3in /  1026.0hPa NE 11mph /  17.7km/h 11mph /  17.7km/h 44% 0in /  0.0mm 346.0 W/m2
16:23 63.7 °F /  17.6 °C 41.4 °F /  5.2 °C 30.3in /  1026.0hPa North 4.9mph /  7.9km/h 10mph /  16.1km/h 44% 0in /  0.0mm 417.0 W/m2
16:28 62.8 °F /  17.1 °C 41.2 °F /  5.1 °C 30.3in /  1026.0hPa NE 2mph /  3.2km/h 7mph /  11.3km/h 45% 0in /  0.0mm 492.0 W/m2
16:33 63.9 °F /  17.7 °C 41 °F /  5.0 °C 30.3in /  1026.0hPa NNE 8.1mph /  13.0km/h 8.1mph /  13.0km/h 43% 0in /  0.0mm 563.0 W/m2
16:38 64.2 °F /  17.9 °C 40.1 °F /  4.5 °C 30.3in /  1026.0hPa North 2.9mph /  4.7km/h 8mph /  12.9km/h 41% 0in /  0.0mm 487.0 W/m2
16:44 64.2 °F /  17.9 °C 40.1 °F /  4.5 °C 30.3in /  1026.0hPa NE 6mph /  9.7km/h 10mph /  16.1km/h 41% 0in /  0.0mm 429.0 W/m2
16:49 63 °F /  17.2 °C 39.6 °F /  4.2 °C 30.3in /  1026.0hPa NNE 8.9mph /  14.3km/h 9mph /  14.5km/h 42% 0in /  0.0mm 350.0 W/m2
16:54 63.3 °F /  17.4 °C 41 °F /  5.0 °C 30.3in /  1026.0hPa NE 2.9mph /  4.7km/h 7mph /  11.3km/h 44% 0in /  0.0mm 315.0 W/m2
16:59 63.5 °F /  17.5 °C 41.2 °F /  5.1 °C 30.3in /  1026.0hPa ENE 4.9mph /  7.9km/h 5mph /  8.0km/h 44% 0in /  0.0mm 438.0 W/m2
17:04 64.4 °F /  18.0 °C 42.1 °F /  5.6 °C 30.3in /  1026.0hPa ENE 2.9mph /  4.7km/h 7mph /  11.3km/h 44% 0in /  0.0mm 446.0 W/m2
17:09 64 °F /  17.8 °C 41.7 °F /  5.4 °C 30.3in /  1025.6hPa NNE 4.9mph /  7.9km/h 8mph /  12.9km/h 44% 0in /  0.0mm 506.0 W/m2
17:14 63.9 °F /  17.7 °C 42.1 °F /  5.6 °C 30.3in /  1025.6hPa Calm   5mph /  8.0km/h 45% 0in /  0.0mm 575.0 W/m2
17:19 64.9 °F /  18.3 °C 42.4 °F /  5.8 °C 30.3in /  1025.6hPa ESE 2mph /  3.2km/h 3mph /  4.8km/h 44% 0in /  0.0mm 520.0 W/m2
17:24 65.7 °F /  18.7 °C 42.6 °F /  5.9 °C 30.3in /  1025.6hPa NE 0.9mph /  1.4km/h 7mph /  11.3km/h 43% 0in /  0.0mm 577.0 W/m2
17:29 65.3 °F /  18.5 °C 41.5 °F /  5.3 °C 30.3in /  1025.6hPa ESE 4.9mph /  7.9km/h 8mph /  12.9km/h 42% 0in /  0.0mm 508.0 W/m2
17:34 64.9 °F /  18.3 °C 42.4 °F /  5.8 °C 30.3in /  1025.6hPa NE 4mph /  6.4km/h 8mph /  12.9km/h 44% 0in /  0.0mm 501.0 W/m2
17:39 64.4 °F /  18.0 °C 41.4 °F /  5.2 °C 30.3in /  1025.6hPa NE 0.9mph /  1.4km/h 10mph /  16.1km/h 43% 0in /  0.0mm 445.0 W/m2
17:44 64.4 °F /  18.0 °C 42.1 °F /  5.6 °C 30.3in /  1025.6hPa ESE 4.9mph /  7.9km/h 5mph /  8.0km/h 44% 0in /  0.0mm 446.0 W/m2
17:49 64.4 °F /  18.0 °C 42.6 °F /  5.9 °C 30.3in /  1025.6hPa NE 0.9mph /  1.4km/h 7mph /  11.3km/h 45% 0in /  0.0mm 429.0 W/m2
17:54 64.4 °F /  18.0 °C 40.8 °F /  4.9 °C 30.3in /  1025.6hPa ENE 6.9mph /  11.1km/h 8mph /  12.9km/h 42% 0in /  0.0mm 422.0 W/m2
17:59 64.9 °F /  18.3 °C 41.9 °F /  5.5 °C 30.3in /  1025.6hPa East 6mph /  9.7km/h 9mph /  14.5km/h 43% 0in /  0.0mm 394.0 W/m2
18:04 65.8 °F /  18.8 °C 42.1 °F /  5.6 °C 30.3in /  1025.6hPa ENE 4.9mph /  7.9km/h 10mph /  16.1km/h 42% 0in /  0.0mm 387.0 W/m2
18:09 66.2 °F /  19.0 °C 42.4 °F /  5.8 °C 30.3in /  1025.6hPa ESE 4.9mph /  7.9km/h 7mph /  11.3km/h 42% 0in /  0.0mm 374.0 W/m2
18:14 66 °F /  18.9 °C 42.3 °F /  5.7 °C 30.3in /  1025.6hPa NE 4mph /  6.4km/h 5mph /  8.0km/h 42% 0in /  0.0mm 359.0 W/m2
18:19 65.8 °F /  18.8 °C 42.1 °F /  5.6 °C 30.3in /  1025.6hPa North 2.9mph /  4.7km/h 6mph /  9.7km/h 42% 0in /  0.0mm 330.0 W/m2
18:24 65.7 °F /  18.7 °C 42.6 °F /  5.9 °C 30.3in /  1025.6hPa NE 2mph /  3.2km/h 5mph /  8.0km/h 43% 0in /  0.0mm 325.0 W/m2
18:29 65.5 °F /  18.6 °C 41.7 °F /  5.4 °C 30.3in /  1025.6hPa East 0.9mph /  1.4km/h 6mph /  9.7km/h 42% 0in /  0.0mm 315.0 W/m2
18:34 65.3 °F /  18.5 °C 41.5 °F /  5.3 °C 30.3in /  1025.6hPa ENE 2.9mph /  4.7km/h 7mph /  11.3km/h 42% 0in /  0.0mm 294.0 W/m2
18:39 64.9 °F /  18.3 °C 41.9 °F /  5.5 °C 30.3in /  1025.6hPa North 2mph /  3.2km/h 7mph /  11.3km/h 43% 0in /  0.0mm 287.0 W/m2
18:44 64.8 °F /  18.2 °C 41.7 °F /  5.4 °C 30.3in /  1025.6hPa ENE 2mph /  3.2km/h 8mph /  12.9km/h 43% 0in /  0.0mm 267.0 W/m2
18:49 64.8 °F /  18.2 °C 41.7 °F /  5.4 °C 30.3in /  1025.6hPa NE 0.9mph /  1.4km/h 3mph /  4.8km/h 43% 0in /  0.0mm 206.0 W/m2
18:54 64.2 °F /  17.9 °C 40.6 °F /  4.8 °C 30.3in /  1025.6hPa NE 2.9mph /  4.7km/h 6mph /  9.7km/h 42% 0in /  0.0mm 216.0 W/m2
18:59 64 °F /  17.8 °C 40.5 °F /  4.7 °C 30.3in /  1025.6hPa ESE 2mph /  3.2km/h 6mph /  9.7km/h 42% 0in /  0.0mm 176.0 W/m2
19:04 64 °F /  17.8 °C 41.2 °F /  5.1 °C 30.3in /  1025.6hPa SSE 0.9mph /  1.4km/h 5mph /  8.0km/h 43% 0in /  0.0mm 183.0 W/m2
19:09 63.9 °F /  17.7 °C 41.5 °F /  5.3 °C 30.3in /  1025.6hPa ESE 6.9mph /  11.1km/h 9mph /  14.5km/h 44% 0in /  0.0mm 190.0 W/m2
19:14 63.9 °F /  17.7 °C 42.1 °F /  5.6 °C 30.3in /  1025.6hPa East 0.9mph /  1.4km/h 2mph /  3.2km/h 45% 0in /  0.0mm 179.0 W/m2
19:19 63.5 °F /  17.5 °C 41.2 °F /  5.1 °C 30.3in /  1025.6hPa East 4mph /  6.4km/h 7mph /  11.3km/h 44% 0in /  0.0mm 167.0 W/m2
19:24 63.9 °F /  17.7 °C 42.1 °F /  5.6 °C 30.3in /  1025.6hPa NE 0.9mph /  1.4km/h 5mph /  8.0km/h 45% 0in /  0.0mm 144.0 W/m2
19:29 64 °F /  17.8 °C 42.8 °F /  6.0 °C 30.3in /  1025.6hPa East 6mph /  9.7km/h 7mph /  11.3km/h 46% 0in /  0.0mm 137.0 W/m2
19:34 64 °F /  17.8 °C 42.8 °F /  6.0 °C 30.3in /  1025.6hPa North 2mph /  3.2km/h 8mph /  12.9km/h 46% 0in /  0.0mm 127.0 W/m2
19:39 63.7 °F /  17.6 °C 42.4 °F /  5.8 °C 30.3in /  1025.6hPa NNE 6mph /  9.7km/h 8mph /  12.9km/h 46% 0in /  0.0mm 116.0 W/m2
19:44 63 °F /  17.2 °C 41.9 °F /  5.5 °C 30.3in /  1025.6hPa NE 0.9mph /  1.4km/h 5mph /  8.0km/h 46% 0in /  0.0mm 104.0 W/m2
19:49 62.6 °F /  17.0 °C 41.5 °F /  5.3 °C 30.3in /  1025.6hPa East 6mph /  9.7km/h 6mph /  9.7km/h 46% 0in /  0.0mm 90.0 W/m2
19:54 62.6 °F /  17.0 °C 42.1 °F /  5.6 °C 30.3in /  1025.6hPa Calm   2mph /  3.2km/h 47% 0in /  0.0mm 77.0 W/m2
19:59 62.8 °F /  17.1 °C 42.8 °F /  6.0 °C 30.3in /  1025.6hPa ENE 2.9mph /  4.7km/h 3mph /  4.8km/h 48% 0in /  0.0mm 70.0 W/m2
20:04 62.4 °F /  16.9 °C 42.4 °F /  5.8 °C 30.3in /  1025.6hPa NE 0.9mph /  1.4km/h 3mph /  4.8km/h 48% 0in /  0.0mm 60.0 W/m2
20:09 62.2 °F /  16.8 °C 42.8 °F /  6.0 °C 30.3in /  1025.6hPa ENE 0.9mph /  1.4km/h 6mph /  9.7km/h 49% 0in /  0.0mm 51.0 W/m2
20:14 62.1 °F /  16.7 °C 43.2 °F /  6.2 °C 30.3in /  1025.6hPa Calm   2mph /  3.2km/h 50% 0in /  0.0mm 40.0 W/m2
20:19 61.9 °F /  16.6 °C 43 °F /  6.1 °C 30.3in /  1025.6hPa ENE 0.9mph /  1.4km/h 2mph /  3.2km/h 50% 0in /  0.0mm 33.0 W/m2
20:24 61.7 °F /  16.5 °C 42.8 °F /  6.0 °C 30.3in /  1025.6hPa ENE 2.9mph /  4.7km/h 5mph /  8.0km/h 50% 0in /  0.0mm 26.0 W/m2
20:29 61.2 °F /  16.2 °C 43 °F /  6.1 °C 30.3in /  1025.6hPa ENE 2mph /  3.2km/h 5mph /  8.0km/h 51% 0in /  0.0mm 23.0 W/m2
20:34 60.6 °F /  15.9 °C 43 °F /  6.1 °C 30.3in /  1025.6hPa ENE 0.9mph /  1.4km/h 3mph /  4.8km/h 52% 0in /  0.0mm 19.0 W/m2
20:39 59.9 °F /  15.5 °C 43.2 °F /  6.2 °C 30.3in /  1025.6hPa NE 2mph /  3.2km/h 4mph /  6.4km/h 54% 0in /  0.0mm 16.0 W/m2
20:44 59.5 °F /  15.3 °C 42.8 °F /  6.0 °C 30.3in /  1025.6hPa NE 2mph /  3.2km/h 3mph /  4.8km/h 54% 0in /  0.0mm 12.0 W/m2
20:49 59.2 °F /  15.1 °C 43 °F /  6.1 °C 30.3in /  1025.6hPa Calm   2mph /  3.2km/h 55% 0in /  0.0mm 7.0 W/m2
20:54 59 °F /  15.0 °C 43.3 °F /  6.3 °C 30.3in /  1025.6hPa Calm   2mph /  3.2km/h 56% 0in /  0.0mm 0.0 W/m2
20:59 58.8 °F /  14.9 °C 43.2 °F /  6.2 °C 30.3in /  1025.6hPa Calm   1mph /  1.6km/h 56% 0in /  0.0mm 0.0 W/m2
21:04 58.6 °F /  14.8 °C 43.5 °F /  6.4 °C 30.3in /  1025.6hPa Calm   1mph /  1.6km/h 57% 0in /  0.0mm 0.0 W/m2
21:09 58.1 °F /  14.5 °C 43.3 °F /  6.3 °C 30.3in /  1025.6hPa Calm   1mph /  1.6km/h 58% 0in /  0.0mm 0.0 W/m2
21:14 57.9 °F /  14.4 °C 43.7 °F /  6.5 °C 30.3in /  1025.6hPa NE 0.9mph /  1.4km/h 2mph /  3.2km/h 59% 0in /  0.0mm 0.0 W/m2
21:19 57.6 °F /  14.2 °C 43.3 °F /  6.3 °C 30.3in /  1026.0hPa Calm   2mph /  3.2km/h 59% 0in /  0.0mm 0.0 W/m2
21:24 57.2 °F /  14.0 °C 43.5 °F /  6.4 °C 30.3in /  1026.0hPa Calm     60% 0in /  0.0mm 0.0 W/m2
21:29 57 °F /  13.9 °C 43.7 °F /  6.5 °C 30.3in /  1026.0hPa Calm     61% 0in /  0.0mm 0.0 W/m2
21:34 56.8 °F /  13.8 °C 43.9 °F /  6.6 °C 30.3in /  1026.0hPa Calm   2mph /  3.2km/h 62% 0in /  0.0mm 0.0 W/m2
21:39 56.7 °F /  13.7 °C 43.7 °F /  6.5 °C 30.3in /  1026.0hPa Calm   3mph /  4.8km/h 62% 0in /  0.0mm 0.0 W/m2
21:44 56.3 °F /  13.5 °C 43.9 °F /  6.6 °C 30.3in /  1026.0hPa Calm   2mph /  3.2km/h 63% 0in /  0.0mm 0.0 W/m2
21:49 56.1 °F /  13.4 °C 44.1 °F /  6.7 °C 30.3in /  1026.0hPa East 0.9mph /  1.4km/h 5mph /  8.0km/h 64% 0in /  0.0mm 0.0 W/m2
21:54 55.8 °F /  13.2 °C 44.2 °F /  6.8 °C 30.3in /  1026.0hPa ENE 2mph /  3.2km/h 3mph /  4.8km/h 65% 0in /  0.0mm 0.0 W/m2
21:59 55.4 °F /  13.0 °C 43.9 °F /  6.6 °C 30.3in /  1026.0hPa Calm   2mph /  3.2km/h 65% 0in /  0.0mm 0.0 W/m2
22:04 55.2 °F /  12.9 °C 44.1 °F /  6.7 °C 30.3in /  1026.0hPa Calm   2mph /  3.2km/h 66% 0in /  0.0mm 0.0 W/m2
22:09 55 °F /  12.8 °C 43.9 °F /  6.6 °C 30.3in /  1026.0hPa Calm   1mph /  1.6km/h 66% 0in /  0.0mm 0.0 W/m2
22:14 54.9 °F /  12.7 °C 44.1 °F /  6.7 °C 30.3in /  1026.0hPa Calm   1mph /  1.6km/h 67% 0in /  0.0mm 0.0 W/m2
22:19 54.7 °F /  12.6 °C 44.2 °F /  6.8 °C 30.3in /  1026.0hPa Calm   2mph /  3.2km/h 68% 0in /  0.0mm 0.0 W/m2
22:24 54.3 °F /  12.4 °C 44.1 °F /  6.7 °C 30.3in /  1026.0hPa Calm   1mph /  1.6km/h 68% 0in /  0.0mm 0.0 W/m2
22:29 54.1 °F /  12.3 °C 43.9 °F /  6.6 °C 30.3in /  1026.0hPa ENE 0.9mph /  1.4km/h 3mph /  4.8km/h 68% 0in /  0.0mm 0.0 W/m2
22:34 54 °F /  12.2 °C 44.1 °F /  6.7 °C 30.3in /  1026.3hPa Calm   3mph /  4.8km/h 69% 0in /  0.0mm 0.0 W/m2
22:39 53.8 °F /  12.1 °C 43.9 °F /  6.6 °C 30.3in /  1026.3hPa Calm   3mph /  4.8km/h 69% 0in /  0.0mm 0.0 W/m2
22:44 53.6 °F /  12.0 °C 43.7 °F /  6.5 °C 30.3in /  1026.3hPa ENE 2mph /  3.2km/h 5mph /  8.0km/h 69% 0in /  0.0mm 0.0 W/m2
22:49 53.4 °F /  11.9 °C 43.9 °F /  6.6 °C 30.3in /  1026.3hPa Calm   2mph /  3.2km/h 70% 0in /  0.0mm 0.0 W/m2
22:54 53.2 °F /  11.8 °C 43.7 °F /  6.5 °C 30.3in /  1026.3hPa Calm   2mph /  3.2km/h 70% 0in /  0.0mm 0.0 W/m2
22:59 53.1 °F /  11.7 °C 43.5 °F /  6.4 °C 30.3in /  1026.3hPa NE 0.9mph /  1.4km/h 5mph /  8.0km/h 70% 0in /  0.0mm 0.0 W/m2
23:04 52.9 °F /  11.6 °C 43.3 °F /  6.3 °C 30.3in /  1026.3hPa Calm   3mph /  4.8km/h 70% 0in /  0.0mm 0.0 W/m2
23:09 52.5 °F /  11.4 °C 43 °F /  6.1 °C 30.3in /  1026.3hPa Calm   6mph /  9.7km/h 70% 0in /  0.0mm 0.0 W/m2
23:14 52.3 °F /  11.3 °C 43.2 °F /  6.2 °C 30.3in /  1026.3hPa Calm   2mph /  3.2km/h 71% 0in /  0.0mm 0.0 W/m2
23:19 52.2 °F /  11.2 °C 43 °F /  6.1 °C 30.3in /  1026.3hPa Calm   3mph /  4.8km/h 71% 0in /  0.0mm 0.0 W/m2
23:24 51.8 °F /  11.0 °C 42.6 °F /  5.9 °C 30.3in /  1026.3hPa Calm   1mph /  1.6km/h 71% 0in /  0.0mm 0.0 W/m2
23:29 51.6 °F /  10.9 °C 42.4 °F /  5.8 °C 30.3in /  1026.3hPa ENE 2mph /  3.2km/h 5mph /  8.0km/h 71% 0in /  0.0mm 0.0 W/m2
23:34 51.4 °F /  10.8 °C 42.4 °F /  5.8 °C 30.3in /  1026.3hPa East 2.9mph /  4.7km/h 4mph /  6.4km/h 71% 0in /  0.0mm 0.0 W/m2
23:39 51.3 °F /  10.7 °C 42.3 °F /  5.7 °C 30.3in /  1026.6hPa Calm   6mph /  9.7km/h 71% 0in /  0.0mm 0.0 W/m2
23:44 51.1 °F /  10.6 °C 42.4 °F /  5.8 °C 30.3in /  1026.6hPa Calm   3mph /  4.8km/h 72% 0in /  0.0mm 0.0 W/m2
23:49 50.9 °F /  10.5 °C 42.3 °F /  5.7 °C 30.3in /  1026.6hPa Calm   4mph /  6.4km/h 72% 0in /  0.0mm 0.0 W/m2
23:54 50.7 °F /  10.4 °C 42.1 °F /  5.6 °C 30.3in /  1026.6hPa ESE 0.9mph /  1.4km/h 4mph /  6.4km/h 72% 0in /  0.0mm 0.0 W/m2
23:59 50.5 °F /  10.3 °C 41.9 °F /  5.5 °C 30.3in /  1026.6hPa East 0.9mph /  1.4km/h 4mph /  6.4km/h 72% 0in /  0.0mm 0.0 W/m2